sensor_id;sensor_type;location;lat;lon;timestamp;pressure;altitude;pressure_sealevel;temperature;humidity
29359;BME280;16347;53.232;6.556;2023-05-21T00:00:11;102116.19;;;19.36;49.83
29359;BME280;16347;53.232;6.556;2023-05-21T00:02:40;102118.13;;;19.28;49.18
29359;BME280;16347;53.232;6.556;2023-05-21T00:05:08;102116.94;;;19.30;50.01
29359;BME280;16347;53.232;6.556;2023-05-21T00:07:40;102115.00;;;19.31;49.97
29359;BME280;16347;53.232;6.556;2023-05-21T00:10:09;102111.97;;;19.26;49.69
29359;BME280;16347;53.232;6.556;2023-05-21T00:12:38;102109.38;;;19.24;50.17
29359;BME280;16347;53.232;6.556;2023-05-21T00:15:08;102116.81;;;19.24;50.44
29359;BME280;16347;53.232;6.556;2023-05-21T00:17:36;102104.72;;;19.25;50.38
29359;BME280;16347;53.232;6.556;2023-05-21T00:20:06;102103.69;;;19.26;50.69
29359;BME280;16347;53.232;6.556;2023-05-21T00:22:35;102113.19;;;19.23;50.18
29359;BME280;16347;53.232;6.556;2023-05-21T00:25:03;102104.94;;;19.23;50.68
29359;BME280;16347;53.232;6.556;2023-05-21T00:27:31;102110.06;;;19.26;50.73
29359;BME280;16347;53.232;6.556;2023-05-21T00:30:01;102107.31;;;19.26;50.61
29359;BME280;16347;53.232;6.556;2023-05-21T00:32:29;102111.75;;;19.27;50.60
29359;BME280;16347;53.232;6.556;2023-05-21T00:34:57;102109.69;;;19.29;50.81
29359;BME280;16347;53.232;6.556;2023-05-21T00:37:26;102104.66;;;19.33;50.07
29359;BME280;16347;53.232;6.556;2023-05-21T00:39:55;102093.63;;;19.33;50.47
29359;BME280;16347;53.232;6.556;2023-05-21T00:42:24;102093.81;;;19.31;50.69
29359;BME280;16347;53.232;6.556;2023-05-21T00:44:52;102089.53;;;19.29;50.59
29359;BME280;16347;53.232;6.556;2023-05-21T00:47:22;102085.03;;;19.28;50.15
29359;BME280;16347;53.232;6.556;2023-05-21T00:49:52;102089.91;;;19.26;50.26
29359;BME280;16347;53.232;6.556;2023-05-21T00:52:21;102090.06;;;19.24;50.76
29359;BME280;16347;53.232;6.556;2023-05-21T00:54:52;102078.31;;;19.30;50.40
29359;BME280;16347;53.232;6.556;2023-05-21T00:57:22;102073.16;;;19.27;50.27
29359;BME280;16347;53.232;6.556;2023-05-21T00:59:52;102069.25;;;19.22;50.62
29359;BME280;16347;53.232;6.556;2023-05-21T01:02:22;102071.03;;;19.15;50.13
29359;BME280;16347;53.232;6.556;2023-05-21T01:04:53;102071.78;;;19.09;50.98
29359;BME280;16347;53.232;6.556;2023-05-21T01:07:21;102072.25;;;19.12;50.62
29359;BME280;16347;53.232;6.556;2023-05-21T01:09:49;102071.22;;;19.13;50.73
29359;BME280;16347;53.232;6.556;2023-05-21T01:12:17;102077.59;;;19.14;50.71
29359;BME280;16347;53.232;6.556;2023-05-21T01:14:46;102065.72;;;19.13;50.56
29359;BME280;16347;53.232;6.556;2023-05-21T01:17:15;102069.69;;;19.11;51.33
29359;BME280;16347;53.232;6.556;2023-05-21T01:19:46;102077.03;;;19.18;50.73
29359;BME280;16347;53.232;6.556;2023-05-21T01:22:15;102071.34;;;19.20;51.16
29359;BME280;16347;53.232;6.556;2023-05-21T01:24:48;102070.28;;;19.21;51.10
29359;BME280;16347;53.232;6.556;2023-05-21T01:27:17;102065.13;;;19.18;50.87
29359;BME280;16347;53.232;6.556;2023-05-21T01:29:45;102070.50;;;19.19;50.79
29359;BME280;16347;53.232;6.556;2023-05-21T01:32:17;102068.09;;;19.16;51.20
29359;BME280;16347;53.232;6.556;2023-05-21T01:34:55;102071.72;;;19.17;51.08
29359;BME280;16347;53.232;6.556;2023-05-21T01:37:30;102063.69;;;19.07;51.33
29359;BME280;16347;53.232;6.556;2023-05-21T01:40:09;102057.34;;;19.07;51.42
29359;BME280;16347;53.232;6.556;2023-05-21T01:42:41;102056.63;;;19.05;51.69
29359;BME280;16347;53.232;6.556;2023-05-21T01:45:11;102057.81;;;19.10;51.29
29359;BME280;16347;53.232;6.556;2023-05-21T01:47:43;102050.88;;;19.14;51.21
29359;BME280;16347;53.232;6.556;2023-05-21T01:50:12;102057.25;;;19.15;51.00
29359;BME280;16347;53.232;6.556;2023-05-21T01:52:48;102056.22;;;19.16;51.08
29359;BME280;16347;53.232;6.556;2023-05-21T01:55:18;102047.13;;;19.07;51.88
29359;BME280;16347;53.232;6.556;2023-05-21T01:57:50;102045.06;;;19.09;51.67
29359;BME280;16347;53.232;6.556;2023-05-21T02:00:20;102056.97;;;19.10;51.45
29359;BME280;16347;53.232;6.556;2023-05-21T02:02:48;102055.72;;;19.12;51.88
29359;BME280;16347;53.232;6.556;2023-05-21T02:05:16;102057.13;;;19.08;52.05
29359;BME280;16347;53.232;6.556;2023-05-21T02:07:44;102060.25;;;19.05;51.32
29359;BME280;16347;53.232;6.556;2023-05-21T02:10:13;102054.56;;;19.07;51.60
29359;BME280;16347;53.232;6.556;2023-05-21T02:12:42;102054.38;;;19.08;52.03
29359;BME280;16347;53.232;6.556;2023-05-21T02:15:10;102057.13;;;19.08;51.70
29359;BME280;16347;53.232;6.556;2023-05-21T02:17:39;102054.00;;;19.11;51.96
29359;BME280;16347;53.232;6.556;2023-05-21T02:20:11;102056.09;;;19.09;51.61
29359;BME280;16347;53.232;6.556;2023-05-21T02:22:40;102051.63;;;19.08;51.60
29359;BME280;16347;53.232;6.556;2023-05-21T02:25:09;102046.19;;;19.00;51.48
29359;BME280;16347;53.232;6.556;2023-05-21T02:27:38;102048.63;;;18.95;51.73
29359;BME280;16347;53.232;6.556;2023-05-21T02:30:09;102047.47;;;18.89;51.38
29359;BME280;16347;53.232;6.556;2023-05-21T02:32:38;102038.34;;;18.89;51.76
29359;BME280;16347;53.232;6.556;2023-05-21T02:35:09;102037.00;;;18.85;51.51
29359;BME280;16347;53.232;6.556;2023-05-21T02:37:38;102043.53;;;18.84;51.46
29359;BME280;16347;53.232;6.556;2023-05-21T02:40:07;102046.84;;;18.79;52.07
29359;BME280;16347;53.232;6.556;2023-05-21T02:42:37;102042.22;;;18.80;51.94
29359;BME280;16347;53.232;6.556;2023-05-21T02:45:10;102042.44;;;18.70;51.90
29359;BME280;16347;53.232;6.556;2023-05-21T02:47:40;102041.63;;;18.62;52.44
29359;BME280;16347;53.232;6.556;2023-05-21T02:50:08;102037.84;;;18.63;52.40
29359;BME280;16347;53.232;6.556;2023-05-21T02:52:43;102035.09;;;18.63;52.48
29359;BME280;16347;53.232;6.556;2023-05-21T02:55:11;102037.00;;;18.62;52.13
29359;BME280;16347;53.232;6.556;2023-05-21T02:57:39;102042.31;;;18.64;52.63
29359;BME280;16347;53.232;6.556;2023-05-21T03:00:08;102033.41;;;18.54;52.63
29359;BME280;16347;53.232;6.556;2023-05-21T03:02:39;102041.00;;;18.52;52.64
29359;BME280;16347;53.232;6.556;2023-05-21T03:05:08;102034.97;;;18.48;52.51
29359;BME280;16347;53.232;6.556;2023-05-21T03:07:36;102040.47;;;18.48;52.83
29359;BME280;16347;53.232;6.556;2023-05-21T03:10:05;102031.19;;;18.49;53.02
29359;BME280;16347;53.232;6.556;2023-05-21T03:12:33;102025.34;;;18.52;53.06
29359;BME280;16347;53.232;6.556;2023-05-21T03:15:02;102031.72;;;18.44;52.60
29359;BME280;16347;53.232;6.556;2023-05-21T03:17:30;102027.69;;;18.32;52.82
29359;BME280;16347;53.232;6.556;2023-05-21T03:19:59;102021.69;;;18.21;53.39
29359;BME280;16347;53.232;6.556;2023-05-21T03:22:27;102023.81;;;18.11;53.60
29359;BME280;16347;53.232;6.556;2023-05-21T03:24:55;102019.84;;;18.13;53.70
29359;BME280;16347;53.232;6.556;2023-05-21T03:27:24;102025.34;;;18.13;54.09
29359;BME280;16347;53.232;6.556;2023-05-21T03:29:53;102021.53;;;18.22;53.61
29359;BME280;16347;53.232;6.556;2023-05-21T03:32:22;102018.22;;;18.27;53.44
29359;BME280;16347;53.232;6.556;2023-05-21T03:34:51;102027.94;;;18.15;53.55
29359;BME280;16347;53.232;6.556;2023-05-21T03:37:20;102029.16;;;18.12;53.50
29359;BME280;16347;53.232;6.556;2023-05-21T03:39:48;102021.94;;;18.11;53.39
29359;BME280;16347;53.232;6.556;2023-05-21T03:42:16;102031.56;;;18.15;53.64
29359;BME280;16347;53.232;6.556;2023-05-21T03:44:48;102029.47;;;18.17;53.83
29359;BME280;16347;53.232;6.556;2023-05-21T03:47:45;102027.34;;;18.27;53.40
29359;BME280;16347;53.232;6.556;2023-05-21T03:50:15;102028.88;;;18.30;53.11
29359;BME280;16347;53.232;6.556;2023-05-21T03:52:44;102034.75;;;18.27;53.06
29359;BME280;16347;53.232;6.556;2023-05-21T03:55:12;102032.84;;;18.27;52.92
29359;BME280;16347;53.232;6.556;2023-05-21T03:57:40;102030.38;;;18.10;53.00
29359;BME280;16347;53.232;6.556;2023-05-21T04:00:08;102037.41;;;18.12;53.58
29359;BME280;16347;53.232;6.556;2023-05-21T04:02:42;102034.31;;;18.15;53.70
29359;BME280;16347;53.232;6.556;2023-05-21T04:05:14;102027.56;;;18.18;53.74
29359;BME280;16347;53.232;6.556;2023-05-21T04:07:43;102022.56;;;18.21;53.54
29359;BME280;16347;53.232;6.556;2023-05-21T04:10:13;102032.91;;;18.19;53.51
29359;BME280;16347;53.232;6.556;2023-05-21T04:12:41;102028.75;;;18.23;53.36
29359;BME280;16347;53.232;6.556;2023-05-21T04:15:09;102023.06;;;18.25;53.40
29359;BME280;16347;53.232;6.556;2023-05-21T04:17:38;102023.06;;;18.25;53.52
29359;BME280;16347;53.232;6.556;2023-05-21T04:20:07;102018.22;;;18.27;53.45
29359;BME280;16347;53.232;6.556;2023-05-21T04:22:35;102025.16;;;18.23;54.04
29359;BME280;16347;53.232;6.556;2023-05-21T04:25:05;102022.56;;;18.21;53.71
29359;BME280;16347;53.232;6.556;2023-05-21T04:27:36;102022.03;;;18.26;53.79
29359;BME280;16347;53.232;6.556;2023-05-21T04:30:05;102028.22;;;18.28;53.49
29359;BME280;16347;53.232;6.556;2023-05-21T04:32:35;102028.22;;;18.28;53.91
29359;BME280;16347;53.232;6.556;2023-05-21T04:35:06;102021.69;;;18.29;54.26
29359;BME280;16347;53.232;6.556;2023-05-21T04:37:35;102028.03;;;18.29;53.93
29359;BME280;16347;53.232;6.556;2023-05-21T04:40:09;102022.16;;;18.32;53.79
29359;BME280;16347;53.232;6.556;2023-05-21T04:42:37;102027.69;;;18.32;54.32
29359;BME280;16347;53.232;6.556;2023-05-21T04:45:08;102017.31;;;18.34;53.69
29359;BME280;16347;53.232;6.556;2023-05-21T04:47:39;102029.38;;;18.33;53.95
29359;BME280;16347;53.232;6.556;2023-05-21T04:50:08;102024.91;;;18.32;54.62
29359;BME280;16347;53.232;6.556;2023-05-21T04:52:38;102026.63;;;18.33;54.24
29359;BME280;16347;53.232;6.556;2023-05-21T04:55:06;102027.31;;;18.35;54.09
29359;BME280;16347;53.232;6.556;2023-05-21T04:57:36;102034.88;;;18.33;54.14
29359;BME280;16347;53.232;6.556;2023-05-21T05:00:05;102031.09;;;18.34;54.08
29359;BME280;16347;53.232;6.556;2023-05-21T05:02:39;102026.44;;;18.35;54.19
29359;BME280;16347;53.232;6.556;2023-05-21T05:05:07;102029.03;;;18.36;53.93
29359;BME280;16347;53.232;6.556;2023-05-21T05:07:35;102020.94;;;18.35;54.30
29359;BME280;16347;53.232;6.556;2023-05-21T05:10:04;102027.69;;;18.32;54.14
29359;BME280;16347;53.232;6.556;2023-05-21T05:12:33;102020.44;;;18.31;53.94
29359;BME280;16347;53.232;6.556;2023-05-21T05:15:02;102029.56;;;18.32;54.25
29359;BME280;16347;53.232;6.556;2023-05-21T05:17:31;102018.41;;;18.25;54.19
29359;BME280;16347;53.232;6.556;2023-05-21T05:20:01;102019.94;;;18.28;54.62
29359;BME280;16347;53.232;6.556;2023-05-21T05:22:29;102016.66;;;18.32;54.64
29359;BME280;16347;53.232;6.556;2023-05-21T05:24:57;102013.72;;;18.34;54.68
29359;BME280;16347;53.232;6.556;2023-05-21T05:27:25;102016.53;;;18.26;54.13
29359;BME280;16347;53.232;6.556;2023-05-21T05:29:54;102012.56;;;18.28;54.29
29359;BME280;16347;53.232;6.556;2023-05-21T05:32:23;102014.28;;;18.29;54.47
29359;BME280;16347;53.232;6.556;2023-05-21T05:34:51;102014.56;;;18.34;54.46
29359;BME280;16347;53.232;6.556;2023-05-21T05:37:19;102008.91;;;18.36;54.82
29359;BME280;16347;53.232;6.556;2023-05-21T05:39:47;102012.81;;;18.41;54.80
29359;BME280;16347;53.232;6.556;2023-05-21T05:42:15;102019.19;;;18.42;54.73
29359;BME280;16347;53.232;6.556;2023-05-21T05:44:44;102011.41;;;18.45;54.85
29359;BME280;16347;53.232;6.556;2023-05-21T05:47:12;102010.56;;;18.45;54.49
29359;BME280;16347;53.232;6.556;2023-05-21T05:49:41;102004.88;;;18.47;54.75
29359;BME280;16347;53.232;6.556;2023-05-21T05:52:09;102006.78;;;18.46;55.00
29359;BME280;16347;53.232;6.556;2023-05-21T05:54:37;102012.94;;;18.48;54.53
29359;BME280;16347;53.232;6.556;2023-05-21T05:57:05;102006.41;;;18.49;54.62
29359;BME280;16347;53.232;6.556;2023-05-21T05:59:34;102005.69;;;18.55;54.47
29359;BME280;16347;53.232;6.556;2023-05-21T06:02:03;102002.44;;;18.52;54.22
29359;BME280;16347;53.232;6.556;2023-05-21T06:04:31;102000.84;;;18.57;54.21
29359;BME280;16347;53.232;6.556;2023-05-21T06:07:01;101998.59;;;18.61;53.66
29359;BME280;16347;53.232;6.556;2023-05-21T06:09:29;101996.31;;;18.64;53.91
29359;BME280;16347;53.232;6.556;2023-05-21T06:11:56;102003.06;;;18.62;53.45
29359;BME280;16347;53.232;6.556;2023-05-21T06:14:24;102000.91;;;18.49;53.74
29359;BME280;16347;53.232;6.556;2023-05-21T06:16:52;101999.69;;;18.52;54.14
29359;BME280;16347;53.232;6.556;2023-05-21T06:19:21;102008.44;;;18.55;54.18
29359;BME280;16347;53.232;6.556;2023-05-21T06:21:49;102003.25;;;18.60;53.96
29359;BME280;16347;53.232;6.556;2023-05-21T06:24:19;102004.00;;;18.46;54.51
29359;BME280;16347;53.232;6.556;2023-05-21T06:26:47;102000.94;;;18.41;54.45
29359;BME280;16347;53.232;6.556;2023-05-21T06:29:15;102008.41;;;18.32;54.52
29359;BME280;16347;53.232;6.556;2023-05-21T06:31:45;102007.03;;;18.28;55.14
29359;BME280;16347;53.232;6.556;2023-05-21T06:34:13;101994.53;;;18.18;55.21
29359;BME280;16347;53.232;6.556;2023-05-21T06:36:41;101992.78;;;18.25;55.07
29359;BME280;16347;53.232;6.556;2023-05-21T06:39:09;101991.75;;;18.26;55.26
29359;BME280;16347;53.232;6.556;2023-05-21T06:41:38;101990.16;;;18.31;55.24
29359;BME280;16347;53.232;6.556;2023-05-21T06:44:23;101997.69;;;18.37;54.85
29359;BME280;16347;53.232;6.556;2023-05-21T06:47:12;101989.75;;;18.42;54.84
29359;BME280;16347;53.232;6.556;2023-05-21T06:49:40;101986.13;;;18.42;54.96
29359;BME280;16347;53.232;6.556;2023-05-21T06:52:08;101983.00;;;18.45;54.71
29359;BME280;16347;53.232;6.556;2023-05-21T06:54:37;101976.63;;;18.44;54.29
29359;BME280;16347;53.232;6.556;2023-05-21T06:57:07;101977.34;;;18.47;54.52
29359;BME280;16347;53.232;6.556;2023-05-21T06:59:35;101974.91;;;18.43;54.58
29359;BME280;16347;53.232;6.556;2023-05-21T07:02:03;101980.59;;;18.50;54.47
29359;BME280;16347;53.232;6.556;2023-05-21T07:04:31;101982.84;;;18.47;54.42
29359;BME280;16347;53.232;6.556;2023-05-21T07:07:00;101981.44;;;18.51;54.39
29359;BME280;16347;53.232;6.556;2023-05-21T07:09:30;101973.69;;;18.54;54.20
29359;BME280;16347;53.232;6.556;2023-05-21T07:11:58;101980.75;;;18.57;54.24
29359;BME280;16347;53.232;6.556;2023-05-21T07:14:28;101986.44;;;18.47;54.77
29359;BME280;16347;53.232;6.556;2023-05-21T07:16:56;101985.94;;;18.43;55.09
29359;BME280;16347;53.232;6.556;2023-05-21T07:19:24;101975.06;;;18.50;55.26
29359;BME280;16347;53.232;6.556;2023-05-21T07:21:52;101980.00;;;18.63;54.78
29359;BME280;16347;53.232;6.556;2023-05-21T07:24:21;101975.69;;;18.60;54.34
29359;BME280;16347;53.232;6.556;2023-05-21T07:26:49;101973.00;;;18.52;54.71
29359;BME280;16347;53.232;6.556;2023-05-21T07:29:16;101971.63;;;18.48;54.47
29359;BME280;16347;53.232;6.556;2023-05-21T07:31:46;101971.97;;;18.53;54.60
29359;BME280;16347;53.232;6.556;2023-05-21T07:34:14;101977.97;;;18.57;54.88
29359;BME280;16347;53.232;6.556;2023-05-21T07:36:44;101980.75;;;18.57;54.78
29359;BME280;16347;53.232;6.556;2023-05-21T07:39:11;101974.66;;;18.61;54.21
29359;BME280;16347;53.232;6.556;2023-05-21T07:41:41;101970.66;;;18.64;54.41
29359;BME280;16347;53.232;6.556;2023-05-21T07:44:09;101978.41;;;18.68;54.49
29359;BME280;16347;53.232;6.556;2023-05-21T07:46:40;101976.63;;;18.75;54.43
29359;BME280;16347;53.232;6.556;2023-05-21T07:49:11;101973.97;;;18.82;54.74
29359;BME280;16347;53.232;6.556;2023-05-21T07:51:43;101973.88;;;18.75;54.30
29359;BME280;16347;53.232;6.556;2023-05-21T07:54:11;101971.72;;;18.63;55.13
29359;BME280;16347;53.232;6.556;2023-05-21T07:56:39;101965.41;;;18.77;55.14
29359;BME280;16347;53.232;6.556;2023-05-21T07:59:15;101955.56;;;18.82;55.04
29359;BME280;16347;53.232;6.556;2023-05-21T08:01:44;101960.41;;;18.95;54.68
29359;BME280;16347;53.232;6.556;2023-05-21T08:04:13;101960.41;;;18.95;54.79
29359;BME280;16347;53.232;6.556;2023-05-21T08:06:41;101953.50;;;18.99;54.18
29359;BME280;16347;53.232;6.556;2023-05-21T08:09:09;101958.59;;;18.87;53.81
29359;BME280;16347;53.232;6.556;2023-05-21T08:11:37;101950.91;;;18.83;54.33
29359;BME280;16347;53.232;6.556;2023-05-21T08:14:06;101949.13;;;18.90;54.76
29359;BME280;16347;53.232;6.556;2023-05-21T08:16:34;101957.00;;;18.93;54.29
29359;BME280;16347;53.232;6.556;2023-05-21T08:19:02;101952.81;;;18.97;54.11
29359;BME280;16347;53.232;6.556;2023-05-21T08:21:32;101953.88;;;18.96;53.89
29359;BME280;16347;53.232;6.556;2023-05-21T08:24:00;101960.25;;;18.97;53.95
29359;BME280;16347;53.232;6.556;2023-05-21T08:26:28;101956.63;;;18.96;54.32
29359;BME280;16347;53.232;6.556;2023-05-21T08:28:56;101960.63;;;19.08;54.15
29359;BME280;16347;53.232;6.556;2023-05-21T08:31:24;101965.00;;;19.03;54.51
29359;BME280;16347;53.232;6.556;2023-05-21T08:33:53;101963.13;;;19.03;53.79
29359;BME280;16347;53.232;6.556;2023-05-21T08:36:35;101965.50;;;19.06;53.61
29359;BME280;16347;53.232;6.556;2023-05-21T08:39:09;101967.06;;;19.01;53.52
29359;BME280;16347;53.232;6.556;2023-05-21T08:41:41;101968.63;;;19.03;53.67
29359;BME280;16347;53.232;6.556;2023-05-21T08:44:19;101968.25;;;19.06;54.29
29359;BME280;16347;53.232;6.556;2023-05-21T08:46:48;101966.72;;;19.04;52.98
29359;BME280;16347;53.232;6.556;2023-05-21T08:49:17;101974.53;;;19.00;53.08
29359;BME280;16347;53.232;6.556;2023-05-21T08:51:56;101967.66;;;18.96;53.37
29359;BME280;16347;53.232;6.556;2023-05-21T08:54:26;101964.41;;;18.92;52.93
29359;BME280;16347;53.232;6.556;2023-05-21T08:56:55;101968.03;;;19.08;52.82
29359;BME280;16347;53.232;6.556;2023-05-21T08:59:25;101965.13;;;19.09;52.95
29359;BME280;16347;53.232;6.556;2023-05-21T09:01:54;101961.81;;;19.14;52.42
29359;BME280;16347;53.232;6.556;2023-05-21T09:04:30;101967.19;;;19.07;52.94
29359;BME280;16347;53.232;6.556;2023-05-21T09:07:01;101974.53;;;19.15;52.80
29359;BME280;16347;53.232;6.556;2023-05-21T09:09:53;101963.91;;;19.26;52.65
29359;BME280;16347;53.232;6.556;2023-05-21T09:12:22;101965.59;;;19.27;52.66
29359;BME280;16347;53.232;6.556;2023-05-21T09:14:50;101965.59;;;19.27;52.81
29359;BME280;16347;53.232;6.556;2023-05-21T09:17:24;101954.44;;;19.43;52.45
29359;BME280;16347;53.232;6.556;2023-05-21T09:20:08;101961.19;;;19.41;53.01
29359;BME280;16347;53.232;6.556;2023-05-21T09:22:43;101957.22;;;19.43;53.08
29359;BME280;16347;53.232;6.556;2023-05-21T09:25:13;101958.03;;;19.44;53.25
29359;BME280;16347;53.232;6.556;2023-05-21T09:27:42;101954.13;;;19.38;52.35
29359;BME280;16347;53.232;6.556;2023-05-21T09:30:11;101957.31;;;19.50;52.00
29359;BME280;16347;53.232;6.556;2023-05-21T09:32:40;101957.31;;;19.50;52.19
29359;BME280;16347;53.232;6.556;2023-05-21T09:35:09;101957.78;;;19.54;51.52
29359;BME280;16347;53.232;6.556;2023-05-21T09:37:38;101949.41;;;19.47;51.49
29359;BME280;16347;53.232;6.556;2023-05-21T09:40:14;101949.69;;;19.52;51.50
29359;BME280;16347;53.232;6.556;2023-05-21T09:42:45;101953.78;;;19.56;51.08
29359;BME280;16347;53.232;6.556;2023-05-21T09:45:17;101948.66;;;19.53;51.57
29359;BME280;16347;53.232;6.556;2023-05-21T09:47:46;101942.75;;;19.56;52.10
29359;BME280;16347;53.232;6.556;2023-05-21T09:50:18;101939.97;;;19.71;51.75
29359;BME280;16347;53.232;6.556;2023-05-21T09:52:47;101947.88;;;19.74;51.58
29359;BME280;16347;53.232;6.556;2023-05-21T09:55:18;101945.38;;;19.64;50.95
29359;BME280;16347;53.232;6.556;2023-05-21T09:57:48;101941.72;;;19.57;51.35
29359;BME280;16347;53.232;6.556;2023-05-21T10:00:18;101944.94;;;19.61;51.52
29359;BME280;16347;53.232;6.556;2023-05-21T10:02:47;101938.19;;;19.63;50.92
29359;BME280;16347;53.232;6.556;2023-05-21T10:05:16;101942.53;;;19.58;51.43
29359;BME280;16347;53.232;6.556;2023-05-21T10:07:48;101934.00;;;19.67;51.27
29359;BME280;16347;53.232;6.556;2023-05-21T10:10:19;101936.06;;;19.80;51.34
29359;BME280;16347;53.232;6.556;2023-05-21T10:12:52;101926.53;;;19.82;51.99
29359;BME280;16347;53.232;6.556;2023-05-21T10:15:23;101921.56;;;19.92;51.19
29359;BME280;16347;53.232;6.556;2023-05-21T10:17:51;101925.19;;;19.93;50.91
29359;BME280;16347;53.232;6.556;2023-05-21T10:20:22;101924.06;;;19.87;50.53
29359;BME280;16347;53.232;6.556;2023-05-21T10:22:50;101918.16;;;19.90;50.52
29359;BME280;16347;53.232;6.556;2023-05-21T10:25:21;101923.28;;;19.93;50.91
29359;BME280;16347;53.232;6.556;2023-05-21T10:27:50;101921.78;;;19.91;50.25
29359;BME280;16347;53.232;6.556;2023-05-21T10:30:20;101919.44;;;19.94;50.29
29359;BME280;16347;53.232;6.556;2023-05-21T10:32:48;101917.56;;;19.95;50.21
29359;BME280;16347;53.232;6.556;2023-05-21T10:35:17;101914.78;;;19.95;50.45
29359;BME280;16347;53.232;6.556;2023-05-21T10:37:45;101922.91;;;19.96;50.96
29359;BME280;16347;53.232;6.556;2023-05-21T10:40:13;101918.78;;;20.07;51.49
29359;BME280;16347;53.232;6.556;2023-05-21T10:43:01;101910.34;;;20.15;50.57
29359;BME280;16347;53.232;6.556;2023-05-21T10:45:42;101904.19;;;20.13;50.23
29359;BME280;16347;53.232;6.556;2023-05-21T10:48:27;101903.25;;;20.06;49.53
29359;BME280;16347;53.232;6.556;2023-05-21T10:51:16;101899.09;;;19.95;50.39
29359;BME280;16347;53.232;6.556;2023-05-21T10:56:48;101897.03;;;19.83;50.75
29359;BME280;16347;53.232;6.556;2023-05-21T10:59:32;101901.38;;;19.92;50.91
29359;BME280;16347;53.232;6.556;2023-05-21T11:02:02;101898.53;;;19.85;51.28
29359;BME280;16347;53.232;6.556;2023-05-21T11:04:33;101883.38;;;19.96;51.29
29359;BME280;16347;53.232;6.556;2023-05-21T11:07:05;101887.31;;;20.08;51.64
29359;BME280;16347;53.232;6.556;2023-05-21T11:09:34;101876.28;;;20.08;50.86
29359;BME280;16347;53.232;6.556;2023-05-21T11:12:02;101887.31;;;20.08;51.04
29359;BME280;16347;53.232;6.556;2023-05-21T11:14:33;101891.47;;;19.98;51.78
29359;BME280;16347;53.232;6.556;2023-05-21T11:17:10;101886.78;;;19.98;52.57
29359;BME280;16347;53.232;6.556;2023-05-21T11:19:40;101881.88;;;20.15;52.48
29359;BME280;16347;53.232;6.556;2023-05-21T11:22:19;101873.22;;;20.18;52.10
29359;BME280;16347;53.232;6.556;2023-05-21T11:24:48;101866.22;;;20.22;51.99
29359;BME280;16347;53.232;6.556;2023-05-21T11:27:32;101869.09;;;20.28;51.77
29359;BME280;16347;53.232;6.556;2023-05-21T11:30:04;101864.25;;;20.30;52.51
29359;BME280;16347;53.232;6.556;2023-05-21T11:32:36;101867.66;;;20.32;52.03
29359;BME280;16347;53.232;6.556;2023-05-21T11:35:06;101866.66;;;20.40;52.51
29359;BME280;16347;53.232;6.556;2023-05-21T11:37:34;101866.59;;;20.55;52.97
29359;BME280;16347;53.232;6.556;2023-05-21T11:40:30;101852.50;;;20.71;52.75
29359;BME280;16347;53.232;6.556;2023-05-21T11:42:58;101849.97;;;20.76;51.81
29359;BME280;16347;53.232;6.556;2023-05-21T11:45:29;101846.44;;;20.88;51.63
29359;BME280;16347;53.232;6.556;2023-05-21T11:47:57;101849.88;;;20.90;52.29
29359;BME280;16347;53.232;6.556;2023-05-21T11:50:26;101852.03;;;20.95;52.25
29359;BME280;16347;53.232;6.556;2023-05-21T11:52:56;101846.28;;;20.96;51.48
29359;BME280;16347;53.232;6.556;2023-05-21T11:55:26;101849.31;;;21.02;51.92
29359;BME280;16347;53.232;6.556;2023-05-21T11:57:54;101848.91;;;21.05;51.74
29359;BME280;16347;53.232;6.556;2023-05-21T12:00:22;101850.13;;;21.02;51.33
29359;BME280;16347;53.232;6.556;2023-05-21T12:02:51;101848.44;;;21.01;51.41
29359;BME280;16347;53.232;6.556;2023-05-21T12:05:22;101830.75;;;20.95;51.47
29359;BME280;16347;53.232;6.556;2023-05-21T12:07:50;101836.00;;;20.84;52.30
29359;BME280;16347;53.232;6.556;2023-05-21T12:10:21;101842.16;;;20.86;51.21
29359;BME280;16347;53.232;6.556;2023-05-21T12:12:50;101841.25;;;20.79;51.33
29359;BME280;16347;53.232;6.556;2023-05-21T12:15:24;101836.75;;;20.71;51.10
29359;BME280;16347;53.232;6.556;2023-05-21T12:17:54;101835.50;;;20.74;51.55
29359;BME280;16347;53.232;6.556;2023-05-21T12:20:25;101837.41;;;20.73;51.55
29359;BME280;16347;53.232;6.556;2023-05-21T12:22:56;101838.44;;;20.72;51.75
29359;BME280;16347;53.232;6.556;2023-05-21T12:25:24;101834.22;;;20.76;52.64
29359;BME280;16347;53.232;6.556;2023-05-21T12:27:52;101835.31;;;20.82;52.54
29359;BME280;16347;53.232;6.556;2023-05-21T12:30:24;101841.66;;;20.76;52.18
29359;BME280;16347;53.232;6.556;2023-05-21T12:32:52;101837.09;;;20.89;52.13
29359;BME280;16347;53.232;6.556;2023-05-21T12:35:22;101832.69;;;20.95;52.08
29359;BME280;16347;53.232;6.556;2023-05-21T12:37:50;101831.69;;;21.09;52.32
29359;BME280;16347;53.232;6.556;2023-05-21T12:40:19;101833.72;;;21.22;52.61
29359;BME280;16347;53.232;6.556;2023-05-21T12:42:48;101829.53;;;21.39;51.50
29359;BME280;16347;53.232;6.556;2023-05-21T12:45:17;101833.44;;;21.51;51.94
29359;BME280;16347;53.232;6.556;2023-05-21T12:47:47;101834.91;;;21.47;51.71
29359;BME280;16347;53.232;6.556;2023-05-21T12:50:23;101833.97;;;21.33;51.47
29359;BME280;16347;53.232;6.556;2023-05-21T12:52:55;101831.56;;;21.17;51.13
29359;BME280;16347;53.232;6.556;2023-05-21T12:55:24;101833.97;;;21.33;51.67
29359;BME280;16347;53.232;6.556;2023-05-21T12:58:02;101834.28;;;21.52;51.72
29359;BME280;16347;53.232;6.556;2023-05-21T13:00:33;101836.69;;;21.68;51.89
29359;BME280;16347;53.232;6.556;2023-05-21T13:03:02;101827.38;;;21.88;51.06
29359;BME280;16347;53.232;6.556;2023-05-21T13:05:34;101825.66;;;21.81;51.16
29359;BME280;16347;53.232;6.556;2023-05-21T13:08:02;101822.91;;;21.87;51.19